sensor_id;sensor_type;location;lat;lon;timestamp;temperature;humidity
17591;DHT22;8914;50.070;8.226;2023-12-07T00:00:48;4.10;99.90
17591;DHT22;8914;50.070;8.226;2023-12-07T00:03:17;4.00;99.90
17591;DHT22;8914;50.070;8.226;2023-12-07T00:05:47;4.00;99.90
17591;DHT22;8914;50.070;8.226;2023-12-07T00:08:17;4.10;99.90
17591;DHT22;8914;50.070;8.226;2023-12-07T00:13:15;3.90;99.90
17591;DHT22;8914;50.070;8.226;2023-12-07T00:15:47;3.90;99.90
17591;DHT22;8914;50.070;8.226;2023-12-07T00:18:17;3.90;99.90
17591;DHT22;8914;50.070;8.226;2023-12-07T00:20:47;3.80;99.90
17591;DHT22;8914;50.070;8.226;2023-12-07T00:23:17;3.80;99.90
17591;DHT22;8914;50.070;8.226;2023-12-07T00:25:46;3.80;99.90
17591;DHT22;8914;50.070;8.226;2023-12-07T00:28:18;3.80;99.90
17591;DHT22;8914;50.070;8.226;2023-12-07T00:30:50;3.80;99.90
17591;DHT22;8914;50.070;8.226;2023-12-07T00:33:20;3.80;99.90
17591;DHT22;8914;50.070;8.226;2023-12-07T00:35:50;3.80;99.90
17591;DHT22;8914;50.070;8.226;2023-12-07T00:38:20;3.80;99.90
17591;DHT22;8914;50.070;8.226;2023-12-07T00:40:50;3.80;99.90
17591;DHT22;8914;50.070;8.226;2023-12-07T00:43:19;3.70;99.90
17591;DHT22;8914;50.070;8.226;2023-12-07T00:45:51;3.80;99.90
17591;DHT22;8914;50.070;8.226;2023-12-07T00:48:21;3.70;99.90
17591;DHT22;8914;50.070;8.226;2023-12-07T00:50:51;3.70;99.90
17591;DHT22;8914;50.070;8.226;2023-12-07T00:53:20;3.70;99.90
17591;DHT22;8914;50.070;8.226;2023-12-07T00:55:50;3.70;99.90
17591;DHT22;8914;50.070;8.226;2023-12-07T00:58:20;3.70;99.90
17591;DHT22;8914;50.070;8.226;2023-12-07T01:00:52;3.70;99.90
17591;DHT22;8914;50.070;8.226;2023-12-07T01:03:22;3.70;99.90
17591;DHT22;8914;50.070;8.226;2023-12-07T01:05:52;3.70;99.90
17591;DHT22;8914;50.070;8.226;2023-12-07T01:08:21;3.70;99.90
17591;DHT22;8914;50.070;8.226;2023-12-07T01:10:51;3.70;99.90
17591;DHT22;8914;50.070;8.226;2023-12-07T01:13:21;3.60;99.90
17591;DHT22;8914;50.070;8.226;2023-12-07T01:15:53;3.60;99.90
17591;DHT22;8914;50.070;8.226;2023-12-07T01:18:22;3.60;99.90
17591;DHT22;8914;50.070;8.226;2023-12-07T01:20:52;3.60;99.90
17591;DHT22;8914;50.070;8.226;2023-12-07T01:23:22;3.60;99.90
17591;DHT22;8914;50.070;8.226;2023-12-07T01:25:52;3.60;99.90
17591;DHT22;8914;50.070;8.226;2023-12-07T01:28:21;3.60;99.90
17591;DHT22;8914;50.070;8.226;2023-12-07T01:30:54;3.60;99.90
17591;DHT22;8914;50.070;8.226;2023-12-07T01:33:24;3.60;99.90
17591;DHT22;8914;50.070;8.226;2023-12-07T01:35:53;3.50;99.90
17591;DHT22;8914;50.070;8.226;2023-12-07T01:38:23;3.50;99.90
17591;DHT22;8914;50.070;8.226;2023-12-07T01:40:53;3.50;99.90
17591;DHT22;8914;50.070;8.226;2023-12-07T01:43:23;3.40;99.90
17591;DHT22;8914;50.070;8.226;2023-12-07T01:45:56;3.40;99.90
17591;DHT22;8914;50.070;8.226;2023-12-07T01:48:26;3.40;99.90
17591;DHT22;8914;50.070;8.226;2023-12-07T01:50:57;3.30;99.90
17591;DHT22;8914;50.070;8.226;2023-12-07T01:53:27;3.30;99.90
17591;DHT22;8914;50.070;8.226;2023-12-07T01:55:57;3.30;99.90
17591;DHT22;8914;50.070;8.226;2023-12-07T01:58:27;3.30;99.90
17591;DHT22;8914;50.070;8.226;2023-12-07T02:00:59;3.20;99.90
17591;DHT22;8914;50.070;8.226;2023-12-07T02:03:30;3.20;99.90
17591;DHT22;8914;50.070;8.226;2023-12-07T02:06:00;3.20;99.90
17591;DHT22;8914;50.070;8.226;2023-12-07T02:08:30;3.10;99.90
17591;DHT22;8914;50.070;8.226;2023-12-07T02:11:00;3.10;99.90
17591;DHT22;8914;50.070;8.226;2023-12-07T02:13:30;3.10;99.90
17591;DHT22;8914;50.070;8.226;2023-12-07T02:16:03;3.00;99.90
17591;DHT22;8914;50.070;8.226;2023-12-07T02:18:37;3.00;99.90
17591;DHT22;8914;50.070;8.226;2023-12-07T02:21:11;3.00;99.90
17591;DHT22;8914;50.070;8.226;2023-12-07T02:23:42;3.00;99.90
17591;DHT22;8914;50.070;8.226;2023-12-07T02:26:18;3.00;99.90
17591;DHT22;8914;50.070;8.226;2023-12-07T02:28:51;2.90;99.90
17591;DHT22;8914;50.070;8.226;2023-12-07T02:31:21;2.90;99.90
17591;DHT22;8914;50.070;8.226;2023-12-07T12:11:46;3.00;99.90
17591;DHT22;8914;50.070;8.226;2023-12-07T12:14:16;3.10;99.90
17591;DHT22;8914;50.070;8.226;2023-12-07T12:16:46;3.10;99.90
17591;DHT22;8914;50.070;8.226;2023-12-07T12:19:16;3.00;99.90
17591;DHT22;8914;50.070;8.226;2023-12-07T12:21:58;3.00;99.90
17591;DHT22;8914;50.070;8.226;2023-12-07T12:24:33;4.20;99.90
17591;DHT22;8914;50.070;8.226;2023-12-07T12:27:07;4.90;99.90
17591;DHT22;8914;50.070;8.226;2023-12-07T12:29:37;2.80;99.90
17591;DHT22;8914;50.070;8.226;2023-12-07T12:32:08;3.90;99.90
17591;DHT22;8914;50.070;8.226;2023-12-07T12:34:38;2.20;99.90
17591;DHT22;8914;50.070;8.226;2023-12-07T12:37:08;3.10;99.90
17591;DHT22;8914;50.070;8.226;2023-12-07T12:39:39;3.20;99.90
17591;DHT22;8914;50.070;8.226;2023-12-07T12:42:11;3.20;99.90
17591;DHT22;8914;50.070;8.226;2023-12-07T12:44:42;2.20;99.90
17591;DHT22;8914;50.070;8.226;2023-12-07T12:47:11;3.60;99.90
17591;DHT22;8914;50.070;8.226;2023-12-07T12:49:42;4.40;99.90
17591;DHT22;8914;50.070;8.226;2023-12-07T12:52:14;3.90;99.90
17591;DHT22;8914;50.070;8.226;2023-12-07T12:54:45;3.60;99.90
17591;DHT22;8914;50.070;8.226;2023-12-07T12:57:19;3.20;99.90
17591;DHT22;8914;50.070;8.226;2023-12-07T12:59:50;3.20;99.90
17591;DHT22;8914;50.070;8.226;2023-12-07T13:02:19;3.10;99.90
17591;DHT22;8914;50.070;8.226;2023-12-07T13:04:49;3.10;99.90
17591;DHT22;8914;50.070;8.226;2023-12-07T13:07:19;3.10;99.90
17591;DHT22;8914;50.070;8.226;2023-12-07T13:09:51;3.20;99.90
17591;DHT22;8914;50.070;8.226;2023-12-07T13:12:23;3.20;99.90
17591;DHT22;8914;50.070;8.226;2023-12-07T13:14:54;3.20;99.90
17591;DHT22;8914;50.070;8.226;2023-12-07T13:17:25;3.20;99.90
17591;DHT22;8914;50.070;8.226;2023-12-07T13:19:55;3.20;99.90
17591;DHT22;8914;50.070;8.226;2023-12-07T13:22:25;3.20;99.90
17591;DHT22;8914;50.070;8.226;2023-12-07T13:24:55;3.20;99.90
17591;DHT22;8914;50.070;8.226;2023-12-07T13:27:28;3.20;99.90
17591;DHT22;8914;50.070;8.226;2023-12-07T13:29:57;3.30;99.90
17591;DHT22;8914;50.070;8.226;2023-12-07T13:32:28;3.20;99.90
17591;DHT22;8914;50.070;8.226;2023-12-07T13:34:58;3.30;99.90
17591;DHT22;8914;50.070;8.226;2023-12-07T13:37:28;3.30;99.90
17591;DHT22;8914;50.070;8.226;2023-12-07T13:39:59;3.40;99.90
17591;DHT22;8914;50.070;8.226;2023-12-07T13:42:33;3.40;99.90
17591;DHT22;8914;50.070;8.226;2023-12-07T13:45:03;3.40;99.90
17591;DHT22;8914;50.070;8.226;2023-12-07T13:47:33;3.30;99.90
17591;DHT22;8914;50.070;8.226;2023-12-07T13:50:04;3.30;99.90
17591;DHT22;8914;50.070;8.226;2023-12-07T13:52:34;3.30;99.90
17591;DHT22;8914;50.070;8.226;2023-12-07T13:55:04;3.30;99.90
17591;DHT22;8914;50.070;8.226;2023-12-07T13:57:37;3.30;99.90
17591;DHT22;8914;50.070;8.226;2023-12-07T14:00:07;3.30;99.90
17591;DHT22;8914;50.070;8.226;2023-12-07T14:02:39;3.40;99.90
17591;DHT22;8914;50.070;8.226;2023-12-07T14:05:10;3.40;99.90
17591;DHT22;8914;50.070;8.226;2023-12-07T14:07:39;3.40;99.90
17591;DHT22;8914;50.070;8.226;2023-12-07T14:10:09;3.30;99.90
17591;DHT22;8914;50.070;8.226;2023-12-07T14:12:41;3.30;99.90
17591;DHT22;8914;50.070;8.226;2023-12-07T14:15:11;3.40;99.90
17591;DHT22;8914;50.070;8.226;2023-12-07T14:17:46;3.40;99.90
17591;DHT22;8914;50.070;8.226;2023-12-07T14:20:19;3.30;99.90
17591;DHT22;8914;50.070;8.226;2023-12-07T14:23:10;3.20;99.90
17591;DHT22;8914;50.070;8.226;2023-12-07T14:25:42;3.20;99.90
17591;DHT22;8914;50.070;8.226;2023-12-07T14:28:16;3.20;99.90
17591;DHT22;8914;50.070;8.226;2023-12-07T14:30:46;3.20;99.90
17591;DHT22;8914;50.070;8.226;2023-12-07T14:33:15;3.20;99.90
17591;DHT22;8914;50.070;8.226;2023-12-07T14:35:45;3.30;99.90
17591;DHT22;8914;50.070;8.226;2023-12-07T14:38:16;3.30;99.90
17591;DHT22;8914;50.070;8.226;2023-12-07T14:40:45;3.30;99.90
17591;DHT22;8914;50.070;8.226;2023-12-07T14:43:18;3.30;99.90
17591;DHT22;8914;50.070;8.226;2023-12-07T14:45:48;3.30;99.90
17591;DHT22;8914;50.070;8.226;2023-12-07T14:48:19;3.40;99.90
17591;DHT22;8914;50.070;8.226;2023-12-07T14:50:49;3.40;99.90
17591;DHT22;8914;50.070;8.226;2023-12-07T14:53:19;3.40;99.90
17591;DHT22;8914;50.070;8.226;2023-12-07T14:55:50;3.40;99.90
17591;DHT22;8914;50.070;8.226;2023-12-07T14:58:23;3.40;99.90
17591;DHT22;8914;50.070;8.226;2023-12-07T15:00:53;3.40;99.90
17591;DHT22;8914;50.070;8.226;2023-12-07T15:03:23;3.40;99.90
17591;DHT22;8914;50.070;8.226;2023-12-07T15:05:53;3.40;99.90
17591;DHT22;8914;50.070;8.226;2023-12-07T15:08:22;3.50;99.90
17591;DHT22;8914;50.070;8.226;2023-12-07T15:10:52;3.50;99.90
17591;DHT22;8914;50.070;8.226;2023-12-07T15:13:25;3.50;99.90
17591;DHT22;8914;50.070;8.226;2023-12-07T15:15:55;3.50;99.90
17591;DHT22;8914;50.070;8.226;2023-12-07T15:18:24;3.50;99.90
17591;DHT22;8914;50.070;8.226;2023-12-07T15:20:57;3.50;99.90
17591;DHT22;8914;50.070;8.226;2023-12-07T15:23:27;3.50;99.90
17591;DHT22;8914;50.070;8.226;2023-12-07T15:25:57;3.50;99.90
17591;DHT22;8914;50.070;8.226;2023-12-07T15:28:30;3.50;99.90
17591;DHT22;8914;50.070;8.226;2023-12-07T15:30:59;3.50;99.90
17591;DHT22;8914;50.070;8.226;2023-12-07T15:33:30;3.50;99.90
17591;DHT22;8914;50.070;8.226;2023-12-07T15:36:00;3.50;99.90
17591;DHT22;8914;50.070;8.226;2023-12-07T15:38:30;3.50;99.90
17591;DHT22;8914;50.070;8.226;2023-12-07T15:41:00;3.50;99.90
17591;DHT22;8914;50.070;8.226;2023-12-07T15:43:32;3.50;99.90
17591;DHT22;8914;50.070;8.226;2023-12-07T15:46:02;3.50;99.90
17591;DHT22;8914;50.070;8.226;2023-12-07T15:48:34;3.50;99.90
17591;DHT22;8914;50.070;8.226;2023-12-07T15:51:04;3.50;99.90
17591;DHT22;8914;50.070;8.226;2023-12-07T15:53:33;3.50;99.90
17591;DHT22;8914;50.070;8.226;2023-12-07T15:56:06;3.50;99.90
17591;DHT22;8914;50.070;8.226;2023-12-07T15:58:40;3.60;99.90
17591;DHT22;8914;50.070;8.226;2023-12-07T16:01:09;3.60;99.90
17591;DHT22;8914;50.070;8.226;2023-12-07T16:03:40;3.50;99.90
17591;DHT22;8914;50.070;8.226;2023-12-07T16:06:09;3.60;99.90
17591;DHT22;8914;50.070;8.226;2023-12-07T16:08:39;3.60;99.90
17591;DHT22;8914;50.070;8.226;2023-12-07T16:11:09;3.60;99.90
17591;DHT22;8914;50.070;8.226;2023-12-07T16:13:41;3.80;99.90
17591;DHT22;8914;50.070;8.226;2023-12-07T16:16:11;3.60;99.90
17591;DHT22;8914;50.070;8.226;2023-12-07T16:18:41;3.60;99.90
17591;DHT22;8914;50.070;8.226;2023-12-07T16:21:11;3.60;99.90
17591;DHT22;8914;50.070;8.226;2023-12-07T16:23:44;3.60;99.90
17591;DHT22;8914;50.070;8.226;2023-12-07T16:26:13;3.70;99.90
17591;DHT22;8914;50.070;8.226;2023-12-07T16:28:46;3.60;99.90
17591;DHT22;8914;50.070;8.226;2023-12-07T16:31:16;3.60;99.90
17591;DHT22;8914;50.070;8.226;2023-12-07T16:33:46;3.70;99.90
17591;DHT22;8914;50.070;8.226;2023-12-07T16:36:16;3.70;99.90
17591;DHT22;8914;50.070;8.226;2023-12-07T16:38:49;3.10;99.90
17591;DHT22;8914;50.070;8.226;2023-12-07T16:41:19;3.70;99.90
17591;DHT22;8914;50.070;8.226;2023-12-07T16:43:51;3.70;99.90
17591;DHT22;8914;50.070;8.226;2023-12-07T16:46:21;3.70;99.90
17591;DHT22;8914;50.070;8.226;2023-12-07T16:48:51;3.70;99.90
17591;DHT22;8914;50.070;8.226;2023-12-07T16:51:23;3.70;99.90
17591;DHT22;8914;50.070;8.226;2023-12-07T16:53:53;3.70;99.90
17591;DHT22;8914;50.070;8.226;2023-12-07T16:56:22;3.70;99.90
17591;DHT22;8914;50.070;8.226;2023-12-07T16:58:55;3.60;99.90
17591;DHT22;8914;50.070;8.226;2023-12-07T17:01:25;3.60;99.90
17591;DHT22;8914;50.070;8.226;2023-12-07T17:03:52;3.60;99.90
17591;DHT22;8914;50.070;8.226;2023-12-07T17:06:22;3.60;99.90
17591;DHT22;8914;50.070;8.226;2023-12-07T17:08:52;3.70;99.90
17591;DHT22;8914;50.070;8.226;2023-12-07T17:11:37;3.60;99.90
17591;DHT22;8914;50.070;8.226;2023-12-07T17:14:10;3.60;99.90
17591;DHT22;8914;50.070;8.226;2023-12-07T17:16:39;3.60;99.90
17591;DHT22;8914;50.070;8.226;2023-12-07T17:19:09;3.60;99.90
17591;DHT22;8914;50.070;8.226;2023-12-07T17:21:39;3.60;99.90
17591;DHT22;8914;50.070;8.226;2023-12-07T17:24:09;3.60;99.90
17591;DHT22;8914;50.070;8.226;2023-12-07T17:26:38;3.60;99.90
17591;DHT22;8914;50.070;8.226;2023-12-07T17:29:22;3.60;99.90
17591;DHT22;8914;50.070;8.226;2023-12-07T17:31:52;3.60;99.90
17591;DHT22;8914;50.070;8.226;2023-12-07T17:34:24;3.60;99.90
17591;DHT22;8914;50.070;8.226;2023-12-07T17:36:54;3.50;99.90
17591;DHT22;8914;50.070;8.226;2023-12-07T17:39:23;3.50;99.90
17591;DHT22;8914;50.070;8.226;2023-12-07T17:41:53;3.40;99.90
17591;DHT22;8914;50.070;8.226;2023-12-07T17:44:25;3.40;99.90
17591;DHT22;8914;50.070;8.226;2023-12-07T17:46:55;3.40;99.90
17591;DHT22;8914;50.070;8.226;2023-12-07T17:49:25;2.70;99.90
17591;DHT22;8914;50.070;8.226;2023-12-07T17:51:56;3.40;99.90
17591;DHT22;8914;50.070;8.226;2023-12-07T17:54:26;3.40;99.90
17591;DHT22;8914;50.070;8.226;2023-12-07T17:56:56;3.40;99.90
17591;DHT22;8914;50.070;8.226;2023-12-07T17:59:28;2.20;99.90
17591;DHT22;8914;50.070;8.226;2023-12-07T18:01:58;3.30;99.90
17591;DHT22;8914;50.070;8.226;2023-12-07T18:04:28;3.40;99.90
17591;DHT22;8914;50.070;8.226;2023-12-07T18:07:01;3.30;99.90
17591;DHT22;8914;50.070;8.226;2023-12-07T18:09:31;3.40;99.90
17591;DHT22;8914;50.070;8.226;2023-12-07T18:12:01;3.40;99.90
17591;DHT22;8914;50.070;8.226;2023-12-07T18:14:33;3.40;99.90
17591;DHT22;8914;50.070;8.226;2023-12-07T18:17:04;3.30;99.90
17591;DHT22;8914;50.070;8.226;2023-12-07T18:19:35;3.30;99.90
17591;DHT22;8914;50.070;8.226;2023-12-07T18:22:04;3.30;99.90
17591;DHT22;8914;50.070;8.226;2023-12-07T18:24:34;3.20;99.90
17591;DHT22;8914;50.070;8.226;2023-12-07T18:27:04;3.20;99.90
17591;DHT22;8914;50.070;8.226;2023-12-07T18:29:36;3.10;99.90
17591;DHT22;8914;50.070;8.226;2023-12-07T18:32:06;3.10;99.90
17591;DHT22;8914;50.070;8.226;2023-12-07T18:34:39;3.10;99.90
17591;DHT22;8914;50.070;8.226;2023-12-07T18:37:09;3.00;99.90
17591;DHT22;8914;50.070;8.226;2023-12-07T18:39:39;3.00;99.90
17591;DHT22;8914;50.070;8.226;2023-12-07T18:42:09;2.90;99.90
17591;DHT22;8914;50.070;8.226;2023-12-07T18:44:41;2.90;99.90
17591;DHT22;8914;50.070;8.226;2023-12-07T18:47:11;2.90;99.90
17591;DHT22;8914;50.070;8.226;2023-12-07T18:49:41;2.90;99.90
17591;DHT22;8914;50.070;8.226;2023-12-07T18:52:10;2.90;99.90
17591;DHT22;8914;50.070;8.226;2023-12-07T18:54:40;2.90;99.90
17591;DHT22;8914;50.070;8.226;2023-12-07T18:57:10;2.80;99.90
17591;DHT22;8914;50.070;8.226;2023-12-07T18:59:42;2.80;99.90
17591;DHT22;8914;50.070;8.226;2023-12-07T19:02:12;2.70;99.90
17591;DHT22;8914;50.070;8.226;2023-12-07T19:04:42;2.70;99.90
17591;DHT22;8914;50.070;8.226;2023-12-07T19:07:13;2.70;99.90
17591;DHT22;8914;50.070;8.226;2023-12-07T19:09:42;2.70;99.90
17591;DHT22;8914;50.070;8.226;2023-12-07T19:12:12;2.60;99.90
17591;DHT22;8914;50.070;8.226;2023-12-07T19:14:44;2.80;99.90
17591;DHT22;8914;50.070;8.226;2023-12-07T19:17:14;2.70;99.90
17591;DHT22;8914;50.070;8.226;2023-12-07T19:19:44;2.80;99.90
17591;DHT22;8914;50.070;8.226;2023-12-07T19:22:14;2.90;99.90
17591;DHT22;8914;50.070;8.226;2023-12-07T19:24:43;2.90;99.90
17591;DHT22;8914;50.070;8.226;2023-12-07T19:27:13;2.80;99.90
17591;DHT22;8914;50.070;8.226;2023-12-07T19:29:46;2.90;99.90
17591;DHT22;8914;50.070;8.226;2023-12-07T19:32:15;2.90;99.90
17591;DHT22;8914;50.070;8.226;2023-12-07T19:34:45;2.80;99.90
17591;DHT22;8914;50.070;8.226;2023-12-07T19:37:15;2.90;99.90
17591;DHT22;8914;50.070;8.226;2023-12-07T19:39:45;2.90;99.90
17591;DHT22;8914;50.070;8.226;2023-12-07T19:42:15;2.90;99.90
17591;DHT22;8914;50.070;8.226;2023-12-07T19:44:47;3.50;99.90
17591;DHT22;8914;50.070;8.226;2023-12-07T19:47:17;2.90;99.90
17591;DHT22;8914;50.070;8.226;2023-12-07T19:49:47;2.90;99.90
17591;DHT22;8914;50.070;8.226;2023-12-07T19:52:17;2.90;99.90
17591;DHT22;8914;50.070;8.226;2023-12-07T19:54:46;2.90;99.90
17591;DHT22;8914;50.070;8.226;2023-12-07T19:57:16;2.90;99.90
17591;DHT22;8914;50.070;8.226;2023-12-07T19:59:48;3.00;99.90
17591;DHT22;8914;50.070;8.226;2023-12-07T20:02:18;3.00;99.90
17591;DHT22;8914;50.070;8.226;2023-12-07T20:04:47;3.00;99.90
17591;DHT22;8914;50.070;8.226;2023-12-07T20:07:17;3.00;99.90
17591;DHT22;8914;50.070;8.226;2023-12-07T20:09:47;3.00;99.90
17591;DHT22;8914;50.070;8.226;2023-12-07T20:12:17;2.90;99.90
17591;DHT22;8914;50.070;8.226;2023-12-07T20:14:50;2.90;99.90
17591;DHT22;8914;50.070;8.226;2023-12-07T20:17:19;3.00;99.90
17591;DHT22;8914;50.070;8.226;2023-12-07T20:19:50;2.90;99.90
17591;DHT22;8914;50.070;8.226;2023-12-07T20:22:20;2.90;99.90
17591;DHT22;8914;50.070;8.226;2023-12-07T20:24:49;2.90;99.90
17591;DHT22;8914;50.070;8.226;2023-12-07T20:27:19;2.90;99.90
17591;DHT22;8914;50.070;8.226;2023-12-07T20:29:52;2.90;99.90
17591;DHT22;8914;50.070;8.226;2023-12-07T20:32:21;2.90;99.90
17591;DHT22;8914;50.070;8.226;2023-12-07T20:34:52;3.00;99.90
17591;DHT22;8914;50.070;8.226;2023-12-07T20:37:22;2.90;99.90
17591;DHT22;8914;50.070;8.226;2023-12-07T20:39:52;3.00;99.90
17591;DHT22;8914;50.070;8.226;2023-12-07T20:42:21;3.00;99.90
17591;DHT22;8914;50.070;8.226;2023-12-07T20:44:54;3.00;99.90
17591;DHT22;8914;50.070;8.226;2023-12-07T20:47:23;3.00;99.90
17591;DHT22;8914;50.070;8.226;2023-12-07T20:49:54;3.10;99.90
17591;DHT22;8914;50.070;8.226;2023-12-07T20:52:23;3.10;99.90
17591;DHT22;8914;50.070;8.226;2023-12-07T20:54:54;3.10;99.90
17591;DHT22;8914;50.070;8.226;2023-12-07T20:57:24;3.10;99.90
17591;DHT22;8914;50.070;8.226;2023-12-07T20:59:57;3.10;99.90
17591;DHT22;8914;50.070;8.226;2023-12-07T21:02:27;3.20;99.90
17591;DHT22;8914;50.070;8.226;2023-12-07T21:04:57;3.20;99.90
17591;DHT22;8914;50.070;8.226;2023-12-07T21:07:27;3.20;99.90
17591;DHT22;8914;50.070;8.226;2023-12-07T21:09:56;3.20;99.90
17591;DHT22;8914;50.070;8.226;2023-12-07T21:12:26;3.20;99.90
17591;DHT22;8914;50.070;8.226;2023-12-07T21:14:58;3.20;99.90
17591;DHT22;8914;50.070;8.226;2023-12-07T21:17:28;3.20;99.90
17591;DHT22;8914;50.070;8.226;2023-12-07T21:19:58;3.20;99.90
17591;DHT22;8914;50.070;8.226;2023-12-07T21:22:28;3.20;99.90
17591;DHT22;8914;50.070;8.226;2023-12-07T21:24:57;3.30;99.90
17591;DHT22;8914;50.070;8.226;2023-12-07T21:27:27;3.20;99.90
17591;DHT22;8914;50.070;8.226;2023-12-07T21:29:59;3.20;99.90
17591;DHT22;8914;50.070;8.226;2023-12-07T21:32:29;3.10;99.90
17591;DHT22;8914;50.070;8.226;2023-12-07T21:34:59;3.20;99.90
17591;DHT22;8914;50.070;8.226;2023-12-07T21:37:29;3.20;99.90
17591;DHT22;8914;50.070;8.226;2023-12-07T21:39:59;3.20;99.90
17591;DHT22;8914;50.070;8.226;2023-12-07T21:42:29;3.20;99.90
17591;DHT22;8914;50.070;8.226;2023-12-07T21:45:02;3.20;99.90
17591;DHT22;8914;50.070;8.226;2023-12-07T21:47:32;3.20;99.90
17591;DHT22;8914;50.070;8.226;2023-12-07T21:50:02;3.30;99.90
17591;DHT22;8914;50.070;8.226;2023-12-07T21:52:32;3.30;99.90
17591;DHT22;8914;50.070;8.226;2023-12-07T21:55:02;3.30;99.90
17591;DHT22;8914;50.070;8.226;2023-12-07T21:57:32;3.30;99.90
17591;DHT22;8914;50.070;8.226;2023-12-07T22:00:04;3.30;99.90
17591;DHT22;8914;50.070;8.226;2023-12-07T22:02:35;3.30;99.90
17591;DHT22;8914;50.070;8.226;2023-12-07T22:05:05;3.20;99.90
17591;DHT22;8914;50.070;8.226;2023-12-07T22:07:35;3.20;99.90
17591;DHT22;8914;50.070;8.226;2023-12-07T22:10:05;3.20;99.90
17591;DHT22;8914;50.070;8.226;2023-12-07T22:12:51;3.20;99.90
17591;DHT22;8914;50.070;8.226;2023-12-07T22:15:24;3.20;99.90
17591;DHT22;8914;50.070;8.226;2023-12-07T22:17:54;3.20;99.90
17591;DHT22;8914;50.070;8.226;2023-12-07T22:20:25;3.30;99.90
17591;DHT22;8914;50.070;8.226;2023-12-07T22:22:55;3.30;99.90
17591;DHT22;8914;50.070;8.226;2023-12-07T22:25:25;3.30;99.90
17591;DHT22;8914;50.070;8.226;2023-12-07T22:27:54;3.30;99.90
17591;DHT22;8914;50.070;8.226;2023-12-07T22:30:28;3.30;99.90
17591;DHT22;8914;50.070;8.226;2023-12-07T22:32:57;3.30;99.90
17591;DHT22;8914;50.070;8.226;2023-12-07T22:35:27;3.30;99.90
17591;DHT22;8914;50.070;8.226;2023-12-07T22:37:58;3.30;99.90
17591;DHT22;8914;50.070;8.226;2023-12-07T22:40:28;3.30;99.90
17591;DHT22;8914;50.070;8.226;2023-12-07T22:42:57;3.40;99.90
17591;DHT22;8914;50.070;8.226;2023-12-07T22:45:29;3.40;99.90
17591;DHT22;8914;50.070;8.226;2023-12-07T22:47:59;3.40;99.90
17591;DHT22;8914;50.070;8.226;2023-12-07T22:50:29;3.40;99.90
17591;DHT22;8914;50.070;8.226;2023-12-07T22:52:59;3.30;99.90
17591;DHT22;8914;50.070;8.226;2023-12-07T22:55:29;3.30;99.90
17591;DHT22;8914;50.070;8.226;2023-12-07T22:57:58;3.30;99.90
17591;DHT22;8914;50.070;8.226;2023-12-07T23:00:31;3.30;99.90
17591;DHT22;8914;50.070;8.226;2023-12-07T23:03:01;3.30;99.90
17591;DHT22;8914;50.070;8.226;2023-12-07T23:05:31;3.20;99.90
17591;DHT22;8914;50.070;8.226;2023-12-07T23:08:01;3.20;99.90
17591;DHT22;8914;50.070;8.226;2023-12-07T23:10:30;3.30;99.90
17591;DHT22;8914;50.070;8.226;2023-12-07T23:13:00;3.30;99.90
17591;DHT22;8914;50.070;8.226;2023-12-07T23:15:32;3.30;99.90
17591;DHT22;8914;50.070;8.226;2023-12-07T23:18:03;3.30;99.90
17591;DHT22;8914;50.070;8.226;2023-12-07T23:20:33;3.20;99.90
17591;DHT22;8914;50.070;8.226;2023-12-07T23:23:03;3.00;99.90
17591;DHT22;8914;50.070;8.226;2023-12-07T23:25:33;3.20;99.90
17591;DHT22;8914;50.070;8.226;2023-12-07T23:28:02;3.20;99.90
17591;DHT22;8914;50.070;8.226;2023-12-07T23:30:35;3.20;99.90
17591;DHT22;8914;50.070;8.226;2023-12-07T23:33:05;3.30;99.90
17591;DHT22;8914;50.070;8.226;2023-12-07T23:35:35;3.30;99.90
17591;DHT22;8914;50.070;8.226;2023-12-07T23:38:04;3.30;99.90
17591;DHT22;8914;50.070;8.226;2023-12-07T23:40:34;3.30;99.90
17591;DHT22;8914;50.070;8.226;2023-12-07T23:43:04;3.30;99.90
17591;DHT22;8914;50.070;8.226;2023-12-07T23:45:36;3.30;99.90
17591;DHT22;8914;50.070;8.226;2023-12-07T23:48:06;3.30;99.90
17591;DHT22;8914;50.070;8.226;2023-12-07T23:50:36;3.30;99.90
17591;DHT22;8914;50.070;8.226;2023-12-07T23:53:06;3.20;99.90
17591;DHT22;8914;50.070;8.226;2023-12-07T23:55:36;3.30;99.90
17591;DHT22;8914;50.070;8.226;2023-12-07T23:58:06;3.20;99.90
